Port Angeles Coast Guard Air Station, WA

6:42 PM PDT on April 26, 2017 (GMT -0700)
Lincoln High School | | Change Station

Elev 200 ft 48.12 °N, 123.46 °W | Updated 6 minutes ago

Partly Cloudy
Partly Cloudy
51.2 °F
Feels Like 51.2 °F
N
1.0
Wind Variable Wind from West
Gusts 20.0 mph

Today
High -- | Low -- °F
--% Chance of Precip.
Yesterday
High -- | Low -- °F
Precip. -- in
Pressure 29.89 in
Visibility 10.0 miles
Clouds Few 4300 ft
Mostly Cloudy 5500 ft
Dew Point 40 °F
Humidity 65%
Rainfall 0.01 in
Snow Depth Not available.
6:03 AM 8:20 PM
New Moon, 0% visible
METAR KCLM 270053Z AUTO 31017G26KT 10SM FEW043 BKN055 11/03 A2988 RMK AO2 PK WND 29026/0047 SLP120 T01060033
Pressure 29.89 in
Visibility 10.0 miles
Clouds Few 4300 ft
Mostly Cloudy 5500 ft
Dew Point 40 °F
Humidity 65%
Rainfall 0.01 in
Snow Depth Not available.
6:03 AM 8:20 PM
New Moon, 0% visible
METAR KCLM 270053Z AUTO 31017G26KT 10SM FEW043 BKN055 11/03 A2988 RMK AO2 PK WND 29026/0047 SLP120 T01060033

Get Severe Weather Alerts

Thanks for signing up!

Be on the lookout for a verification email in your inbox.

You'll start receiving the daily forecast at 8 AM.

×

10-Day Weather Forecast

Almanac

Astronomy

Apr. 26, 2017 Rise Set
Actual Time
Civil Twilight
Nautical Twilight
Astronomical Twilight
Moon
Length of Visible Light
Length of Day
Tomorrow will be .
, % of the Moon is Illuminated

Today's Extremes

State Highs State Lows

Community

WunderPhotos

WunderBlog® & News

Nearby

Air Quality

  Air Quality AQ Index Pollutant
Not available.

Snow Depth

Station Depth Elevation

Earthquake Activity

City Distance Mag. Time & Date
Minimum magnitude displayed is 2.5.

Coastal Water Temperatures

Place Temperature

Stations

Nearby Weather Stations

Station Location Temp. Windchill Dew Point Humidity Wind Precip. Elev Updated Type
                   

Watches & Warnings

There are currently no watches in effect.